createdAt,value
2017-10-27T00:00:18.652Z,996.4
2017-10-27T00:01:18.650Z,996.42
2017-10-27T00:02:18.650Z,996.39
2017-10-27T00:03:18.657Z,996.37
2017-10-27T00:04:18.648Z,996.36
2017-10-27T00:05:18.648Z,996.31
2017-10-27T00:06:18.648Z,996.26
2017-10-27T00:07:18.647Z,996.22
2017-10-27T00:08:18.646Z,996.27
2017-10-27T00:09:18.644Z,996.23
2017-10-27T00:10:18.644Z,996.24
2017-10-27T00:11:18.647Z,996.22
2017-10-27T00:12:18.643Z,996.2
2017-10-27T00:13:18.643Z,996.19
2017-10-27T00:14:18.643Z,996.14
2017-10-27T00:15:18.692Z,996.1
2017-10-27T00:16:18.641Z,996.08
2017-10-27T00:17:18.640Z,996.1
2017-10-27T00:18:18.641Z,996.1
2017-10-27T00:19:18.638Z,996.08
2017-10-27T00:20:18.638Z,996.07
2017-10-27T00:21:18.638Z,996.02
2017-10-27T00:22:18.640Z,996.01
2017-10-27T00:23:18.645Z,996.01
2017-10-27T00:24:18.638Z,996.03
2017-10-27T00:25:18.637Z,996
2017-10-27T00:26:18.636Z,995.94
2017-10-27T00:27:18.635Z,995.94
2017-10-27T00:28:18.634Z,995.92
2017-10-27T00:29:18.635Z,995.92
2017-10-27T00:30:18.635Z,995.9
2017-10-27T00:31:18.634Z,995.88
2017-10-27T00:32:18.632Z,995.93
2017-10-27T00:33:18.632Z,995.93
2017-10-27T00:34:18.634Z,995.96
2017-10-27T00:35:18.634Z,995.99
2017-10-27T00:36:18.631Z,995.96
2017-10-27T00:37:18.630Z,995.98
2017-10-27T00:38:18.630Z,995.98
2017-10-27T00:39:18.630Z,995.96
2017-10-27T00:40:18.629Z,995.97
2017-10-27T00:41:18.629Z,995.94
2017-10-27T00:42:18.629Z,995.95
2017-10-27T00:43:18.628Z,995.9
2017-10-27T00:44:18.625Z,995.92
2017-10-27T00:45:18.626Z,995.91
2017-10-27T00:46:18.625Z,995.89
2017-10-27T00:47:18.626Z,995.85
2017-10-27T00:48:18.624Z,995.83
2017-10-27T00:49:18.623Z,995.86
2017-10-27T00:50:18.623Z,995.85
2017-10-27T00:51:18.622Z,995.82
2017-10-27T00:52:18.623Z,995.85
2017-10-27T00:53:18.622Z,995.86
2017-10-27T00:54:18.620Z,995.86
2017-10-27T00:55:18.621Z,995.89
2017-10-27T00:56:18.619Z,995.92
2017-10-27T00:57:18.618Z,995.86
2017-10-27T00:58:18.617Z,995.84
2017-10-27T00:59:18.617Z,995.9
2017-10-27T01:00:19.068Z,995.9
2017-10-27T01:01:18.617Z,995.86
2017-10-27T01:02:18.615Z,995.88
2017-10-27T01:03:18.615Z,995.83
2017-10-27T01:04:18.615Z,995.86
2017-10-27T01:05:18.614Z,995.81
2017-10-27T01:06:18.617Z,995.8
2017-10-27T01:07:18.611Z,995.76
2017-10-27T01:08:18.612Z,995.77
2017-10-27T01:09:18.611Z,995.77
2017-10-27T01:10:18.611Z,995.74
2017-10-27T01:11:18.611Z,995.74
2017-10-27T01:12:18.610Z,995.71
2017-10-27T01:13:18.612Z,995.64
2017-10-27T01:14:18.613Z,995.68
2017-10-27T01:15:18.608Z,995.68
2017-10-27T01:16:18.615Z,995.66
2017-10-27T01:17:18.606Z,995.68
2017-10-27T01:18:18.609Z,995.64
2017-10-27T01:19:18.613Z,995.63
2017-10-27T01:20:18.616Z,995.61
2017-10-27T01:21:18.605Z,995.64
2017-10-27T01:22:18.605Z,995.63
2017-10-27T01:23:18.603Z,995.61
2017-10-27T01:24:18.605Z,995.56
2017-10-27T01:25:18.607Z,995.6
2017-10-27T01:26:18.605Z,995.6
2017-10-27T01:27:18.610Z,995.59
2017-10-27T01:28:18.601Z,995.53
2017-10-27T01:29:18.601Z,995.55
2017-10-27T01:30:18.600Z,995.55
2017-10-27T01:31:18.601Z,995.53
2017-10-27T01:32:18.599Z,995.55
2017-10-27T01:33:18.598Z,995.55
2017-10-27T01:34:18.598Z,995.58
2017-10-27T01:35:18.598Z,995.59
2017-10-27T01:36:18.596Z,995.58
2017-10-27T01:37:18.616Z,995.58
2017-10-27T01:38:18.597Z,995.58
2017-10-27T01:39:18.597Z,995.56
2017-10-27T01:40:18.601Z,995.54
2017-10-27T01:41:18.597Z,995.54
2017-10-27T01:42:18.595Z,995.54
2017-10-27T01:43:18.594Z,995.51
2017-10-27T01:44:18.593Z,995.47
2017-10-27T01:45:18.594Z,995.49
2017-10-27T01:46:18.592Z,995.44
2017-10-27T01:47:18.591Z,995.43
2017-10-27T01:48:18.596Z,995.46
2017-10-27T01:49:18.607Z,995.42
2017-10-27T01:50:18.589Z,995.42
2017-10-27T01:51:18.589Z,995.45
2017-10-27T01:52:18.592Z,995.42
2017-10-27T01:53:18.589Z,995.4
2017-10-27T01:54:18.587Z,995.42
2017-10-27T01:55:18.589Z,995.44
2017-10-27T01:56:18.587Z,995.42
2017-10-27T01:57:18.585Z,995.42
2017-10-27T01:58:18.584Z,995.44
2017-10-27T01:59:18.583Z,995.39
2017-10-27T02:00:18.584Z,995.39
2017-10-27T02:01:18.582Z,995.4
2017-10-27T02:02:18.583Z,995.36
2017-10-27T02:03:18.583Z,995.37
2017-10-27T02:04:18.581Z,995.35
2017-10-27T02:05:18.578Z,995.33
2017-10-27T02:06:18.577Z,995.33
2017-10-27T02:07:18.578Z,995.33
2017-10-27T02:08:18.579Z,995.29
2017-10-27T02:09:18.577Z,995.3
2017-10-27T02:10:18.578Z,995.26
2017-10-27T02:11:18.576Z,995.27
2017-10-27T02:12:18.574Z,995.29
2017-10-27T02:13:18.581Z,995.28
2017-10-27T02:14:18.574Z,995.27
2017-10-27T02:15:18.575Z,995.25
2017-10-27T02:16:18.571Z,995.22
2017-10-27T02:17:18.571Z,995.15
2017-10-27T02:18:18.575Z,995.18
2017-10-27T02:19:18.570Z,995.19
2017-10-27T02:20:18.684Z,995.22
2017-10-27T02:21:18.568Z,995.14
2017-10-27T02:22:18.568Z,995.17
2017-10-27T02:23:18.566Z,995.12
2017-10-27T02:24:18.567Z,995.1
2017-10-27T02:25:18.566Z,995.06
2017-10-27T02:26:18.566Z,995.03
2017-10-27T02:27:18.563Z,995.01
2017-10-27T02:28:18.562Z,995
2017-10-27T02:29:18.563Z,994.94
2017-10-27T02:30:18.562Z,995
2017-10-27T02:31:21.816Z,994.99
2017-10-27T02:32:18.562Z,994.99
2017-10-27T02:33:18.559Z,995
2017-10-27T02:34:18.560Z,994.99
2017-10-27T02:35:18.558Z,994.97
2017-10-27T02:36:18.558Z,994.94
2017-10-27T02:37:18.558Z,994.98
2017-10-27T02:38:18.556Z,994.97
2017-10-27T02:39:18.573Z,994.99
2017-10-27T02:40:18.622Z,994.99
2017-10-27T02:41:18.616Z,995.03
2017-10-27T02:42:18.552Z,994.94
2017-10-27T02:43:18.553Z,994.94
2017-10-27T02:44:18.552Z,994.9
2017-10-27T02:45:18.552Z,994.92
2017-10-27T02:46:18.550Z,994.92
2017-10-27T02:47:18.550Z,994.9
2017-10-27T02:48:18.549Z,994.92
2017-10-27T02:49:18.549Z,994.86
2017-10-27T02:50:18.547Z,994.89
2017-10-27T02:51:18.546Z,994.92
2017-10-27T02:52:18.548Z,994.86
2017-10-27T02:53:18.546Z,994.87
2017-10-27T02:54:18.544Z,994.85
2017-10-27T02:55:18.545Z,994.91
2017-10-27T02:56:18.543Z,994.89
2017-10-27T02:57:18.543Z,994.9
2017-10-27T02:58:18.547Z,994.89
2017-10-27T02:59:18.542Z,994.9
2017-10-27T03:00:18.541Z,994.88
2017-10-27T03:01:18.540Z,994.94
2017-10-27T03:02:18.541Z,994.88
2017-10-27T03:03:18.537Z,994.89
2017-10-27T03:04:18.537Z,994.89
2017-10-27T03:05:18.538Z,994.9
2017-10-27T03:06:18.537Z,994.92
2017-10-27T03:07:18.536Z,994.91
2017-10-27T03:08:18.534Z,994.88
2017-10-27T03:09:18.534Z,994.88
2017-10-27T03:10:18.534Z,994.85
2017-10-27T03:11:18.540Z,994.84
2017-10-27T03:12:18.532Z,994.81
2017-10-27T03:13:18.542Z,994.83
2017-10-27T03:14:18.528Z,994.77
2017-10-27T03:15:18.539Z,994.77
2017-10-27T03:16:18.528Z,994.8
2017-10-27T03:17:18.527Z,994.8
2017-10-27T03:18:18.529Z,994.82
2017-10-27T03:19:18.527Z,994.83
2017-10-27T03:20:18.533Z,994.77
2017-10-27T03:21:18.528Z,994.79
2017-10-27T03:22:18.527Z,994.79
2017-10-27T03:23:18.521Z,994.78
2017-10-27T03:24:18.522Z,994.76
2017-10-27T03:25:18.520Z,994.78
2017-10-27T03:26:18.519Z,994.82
2017-10-27T03:27:18.523Z,994.88
2017-10-27T03:28:18.518Z,994.92
2017-10-27T03:29:18.515Z,994.96
2017-10-27T03:30:18.517Z,994.98
2017-10-27T03:31:18.514Z,995.04
2017-10-27T03:32:18.516Z,995.06
2017-10-27T03:33:18.512Z,995.1
2017-10-27T03:34:18.511Z,995.09
2017-10-27T03:35:18.510Z,995.11
2017-10-27T03:36:18.509Z,995.1
2017-10-27T03:37:18.510Z,995.14
2017-10-27T03:38:18.507Z,995.14
2017-10-27T03:39:18.505Z,995.11
2017-10-27T03:40:18.503Z,995.07
2017-10-27T03:41:18.504Z,995.1
2017-10-27T03:42:18.507Z,995.11
2017-10-27T03:43:18.504Z,995.14
2017-10-27T03:44:18.513Z,995.13
2017-10-27T03:45:18.500Z,995.16
2017-10-27T03:46:18.514Z,995.11
2017-10-27T03:47:18.496Z,995.13
2017-10-27T03:48:18.501Z,995.12
2017-10-27T03:49:18.502Z,995.11
2017-10-27T03:50:18.500Z,995.13
2017-10-27T03:51:18.502Z,995.14
2017-10-27T03:52:18.503Z,995.16
2017-10-27T03:53:18.502Z,995.17
2017-10-27T03:54:18.502Z,995.17
2017-10-27T03:55:18.500Z,995.16
2017-10-27T03:56:18.501Z,995.2
2017-10-27T03:57:18.486Z,995.2
2017-10-27T03:58:18.481Z,995.23
2017-10-27T03:59:18.481Z,995.24
2017-10-27T04:00:18.481Z,995.2
2017-10-27T04:01:18.482Z,995.23
2017-10-27T04:02:18.926Z,995.22
2017-10-27T04:03:18.496Z,995.23
2017-10-27T04:04:18.473Z,995.21
2017-10-27T04:05:18.472Z,995.21
2017-10-27T04:06:18.470Z,995.19
2017-10-27T04:07:18.469Z,995.14
2017-10-27T04:08:18.467Z,995.14
2017-10-27T04:09:18.468Z,995.1
2017-10-27T04:10:18.463Z,995.05
2017-10-27T04:11:18.462Z,995.03
2017-10-27T04:12:18.461Z,995.05
2017-10-27T04:13:18.458Z,995.07
2017-10-27T04:14:18.459Z,995.02
2017-10-27T04:15:18.458Z,995.03
2017-10-27T04:16:18.454Z,995.03
2017-10-27T04:17:18.461Z,995.01
2017-10-27T04:18:18.454Z,995.05
2017-10-27T04:19:18.453Z,995.04
2017-10-27T04:20:18.455Z,995.03
2017-10-27T04:21:18.454Z,995.01
2017-10-27T04:22:18.457Z,995
2017-10-27T04:23:18.447Z,994.97
2017-10-27T04:24:18.456Z,994.98
2017-10-27T04:25:19.021Z,995.01
2017-10-27T04:26:18.445Z,994.9
2017-10-27T04:27:18.440Z,994.94
2017-10-27T04:28:18.436Z,994.98
2017-10-27T04:29:18.433Z,994.9
2017-10-27T04:30:18.432Z,994.83
2017-10-27T04:31:18.429Z,994.86
2017-10-27T04:32:19.492Z,994.83
2017-10-27T04:33:18.426Z,994.78
2017-10-27T04:34:18.424Z,994.76
2017-10-27T04:35:18.423Z,994.77
2017-10-27T04:36:18.425Z,994.78
2017-10-27T04:37:18.421Z,994.83
2017-10-27T04:38:18.418Z,994.77
2017-10-27T04:39:18.416Z,994.77
2017-10-27T04:40:18.415Z,994.75
2017-10-27T04:41:18.413Z,994.75
2017-10-27T04:42:18.409Z,994.71
2017-10-27T04:43:18.409Z,994.7
2017-10-27T04:44:18.409Z,994.66
2017-10-27T04:45:18.405Z,994.66
2017-10-27T04:46:18.406Z,994.65
2017-10-27T04:47:18.404Z,994.63
2017-10-27T04:48:18.409Z,994.57
2017-10-27T04:49:18.397Z,994.52
2017-10-27T04:50:18.396Z,994.56
2017-10-27T04:51:18.397Z,994.54
2017-10-27T04:52:18.392Z,994.58
2017-10-27T04:53:18.392Z,994.6
2017-10-27T04:54:18.389Z,994.54
2017-10-27T04:55:18.387Z,994.59
2017-10-27T04:56:18.388Z,994.48
2017-10-27T04:57:18.386Z,994.55
2017-10-27T04:58:18.383Z,994.47
2017-10-27T04:59:18.381Z,994.54
2017-10-27T05:00:18.381Z,994.54
2017-10-27T05:01:18.377Z,994.52
2017-10-27T05:02:18.384Z,994.49
2017-10-27T05:03:18.372Z,994.51
2017-10-27T05:04:18.370Z,994.52
2017-10-27T05:05:18.368Z,994.51
2017-10-27T05:06:18.366Z,994.51
2017-10-27T05:07:18.370Z,994.53
2017-10-27T05:08:18.366Z,994.55
2017-10-27T05:09:18.362Z,994.55
2017-10-27T05:10:18.359Z,994.58
2017-10-27T05:11:18.356Z,994.61
2017-10-27T05:12:18.355Z,994.65
2017-10-27T05:13:18.355Z,994.62
2017-10-27T05:14:18.351Z,994.58
2017-10-27T05:15:18.358Z,994.52
2017-10-27T05:16:18.349Z,994.53
2017-10-27T05:17:18.346Z,994.54
2017-10-27T05:18:18.344Z,994.54
2017-10-27T05:19:18.346Z,994.56
2017-10-27T05:20:18.344Z,994.58
2017-10-27T05:21:18.341Z,994.62
2017-10-27T05:22:18.338Z,994.58
2017-10-27T05:23:18.336Z,994.55
2017-10-27T05:24:18.336Z,994.48
2017-10-27T05:25:18.334Z,994.51
2017-10-27T05:26:18.332Z,994.51
2017-10-27T05:27:18.329Z,994.51
2017-10-27T05:28:18.328Z,994.47
2017-10-27T05:29:18.332Z,994.49
2017-10-27T05:30:18.326Z,994.54
2017-10-27T05:31:18.324Z,994.59
2017-10-27T05:32:18.324Z,994.57
2017-10-27T05:33:18.322Z,994.53
2017-10-27T05:34:18.328Z,994.53
2017-10-27T05:35:18.317Z,994.56
2017-10-27T05:36:18.316Z,994.56
2017-10-27T05:37:18.314Z,994.58
2017-10-27T05:38:18.314Z,994.58
2017-10-27T05:39:18.313Z,994.62
2017-10-27T05:40:18.310Z,994.63
2017-10-27T05:41:18.309Z,994.67
2017-10-27T05:42:18.308Z,994.69
2017-10-27T05:43:18.331Z,994.71
2017-10-27T05:44:18.304Z,994.71
2017-10-27T05:45:18.304Z,994.73
2017-10-27T05:46:18.302Z,994.71
2017-10-27T05:47:18.301Z,994.7
2017-10-27T05:48:18.299Z,994.68
2017-10-27T05:49:18.305Z,994.65
2017-10-27T05:50:18.298Z,994.58
2017-10-27T05:51:18.295Z,994.57
2017-10-27T05:52:18.304Z,994.58
2017-10-27T05:53:18.298Z,994.59
2017-10-27T05:54:18.292Z,994.59
2017-10-27T05:55:18.291Z,994.54
2017-10-27T05:56:18.293Z,994.6
2017-10-27T05:57:18.288Z,994.62
2017-10-27T05:58:18.288Z,994.61
2017-10-27T05:59:18.290Z,994.63
2017-10-27T06:00:18.318Z,994.67
2017-10-27T06:01:18.287Z,994.68
2017-10-27T06:02:18.286Z,994.74
2017-10-27T06:03:20.434Z,994.78
2017-10-27T06:04:18.280Z,994.79
2017-10-27T06:05:18.287Z,994.84
2017-10-27T06:06:18.281Z,994.87
2017-10-27T06:07:18.280Z,994.89
2017-10-27T06:08:18.276Z,994.9
2017-10-27T06:09:18.276Z,994.99
2017-10-27T06:10:18.273Z,995.01
2017-10-27T06:11:18.271Z,995.03
2017-10-27T06:12:18.270Z,995.08
2017-10-27T06:13:18.268Z,995.15
2017-10-27T06:14:18.268Z,995.18
2017-10-27T06:15:18.265Z,995.21
2017-10-27T06:16:18.266Z,995.24
2017-10-27T06:17:18.262Z,995.23
2017-10-27T06:18:18.261Z,995.22
2017-10-27T06:19:18.261Z,995.27
2017-10-27T06:20:18.259Z,995.29
2017-10-27T06:21:18.259Z,995.31
2017-10-27T06:22:18.259Z,995.34
2017-10-27T06:23:18.260Z,995.38
2017-10-27T06:24:18.252Z,995.4
2017-10-27T06:25:18.252Z,995.43
2017-10-27T06:26:18.251Z,995.45
2017-10-27T06:27:18.253Z,995.42
2017-10-27T06:28:18.248Z,995.47
2017-10-27T06:29:18.246Z,995.46
2017-10-27T06:30:18.522Z,995.46
2017-10-27T06:31:18.246Z,995.52
2017-10-27T06:32:18.244Z,995.55
2017-10-27T06:33:18.249Z,995.57
2017-10-27T06:34:18.251Z,995.57
2017-10-27T06:35:18.235Z,995.58
2017-10-27T06:36:18.233Z,995.57
2017-10-27T06:37:18.232Z,995.58
2017-10-27T06:38:18.231Z,995.53
2017-10-27T06:39:18.228Z,995.61
2017-10-27T06:40:18.226Z,995.6
2017-10-27T06:41:18.224Z,995.61
2017-10-27T06:42:18.223Z,995.54
2017-10-27T06:43:18.222Z,995.56
2017-10-27T06:44:18.242Z,995.59
2017-10-27T06:45:18.219Z,995.62
2017-10-27T06:46:18.214Z,995.63
2017-10-27T06:47:18.213Z,995.67
2017-10-27T06:48:18.211Z,995.77
2017-10-27T06:49:18.214Z,995.8
2017-10-27T06:50:18.208Z,995.89
2017-10-27T06:51:18.206Z,995.9
2017-10-27T06:52:18.205Z,995.94
2017-10-27T06:53:18.202Z,996.06
2017-10-27T06:54:18.203Z,996.15
2017-10-27T06:55:18.198Z,996.17
2017-10-27T06:56:18.197Z,996.14
2017-10-27T06:57:18.195Z,996.13
2017-10-27T06:58:18.193Z,996.08
2017-10-27T06:59:18.190Z,996.08
2017-10-27T07:00:18.189Z,996.13
2017-10-27T07:01:18.188Z,996.19
2017-10-27T07:02:18.184Z,996.21
2017-10-27T07:03:18.190Z,996.25
2017-10-27T07:04:19.132Z,996.31
2017-10-27T07:05:18.178Z,996.33
2017-10-27T07:06:18.175Z,996.34
2017-10-27T07:07:18.174Z,996.4
2017-10-27T07:08:18.170Z,996.41
2017-10-27T07:09:18.172Z,996.46
2017-10-27T07:10:18.168Z,996.48
2017-10-27T07:11:18.166Z,996.48
2017-10-27T07:12:18.167Z,996.51
2017-10-27T07:13:18.160Z,996.58
2017-10-27T07:14:18.160Z,996.59
2017-10-27T07:15:18.160Z,996.57
2017-10-27T07:16:18.162Z,996.69
2017-10-27T07:17:18.158Z,996.71
2017-10-27T07:18:18.151Z,996.7
2017-10-27T07:19:18.146Z,996.7
2017-10-27T07:20:18.145Z,996.71
2017-10-27T07:21:18.143Z,996.77
2017-10-27T07:22:18.139Z,996.81
2017-10-27T07:23:18.137Z,996.84
2017-10-27T07:24:18.135Z,996.86
2017-10-27T07:25:18.132Z,996.87
2017-10-27T07:26:18.129Z,996.93
2017-10-27T07:27:18.128Z,997
2017-10-27T07:28:18.125Z,997.01
2017-10-27T07:29:18.122Z,997.01
2017-10-27T07:30:18.119Z,997.01
2017-10-27T07:31:18.116Z,997.07
2017-10-27T07:32:18.114Z,997.01
2017-10-27T07:33:18.112Z,997.05
2017-10-27T07:34:18.114Z,997.08
2017-10-27T07:35:18.119Z,997.07
2017-10-27T07:36:18.113Z,997.08
2017-10-27T07:37:18.101Z,997.12
2017-10-27T07:38:18.099Z,997.14
2017-10-27T07:39:18.099Z,997.12
2017-10-27T07:40:18.093Z,997.16
2017-10-27T07:41:18.090Z,997.21
2017-10-27T07:42:18.089Z,997.3
2017-10-27T07:43:18.087Z,997.37
2017-10-27T07:44:18.095Z,997.39
2017-10-27T07:45:18.082Z,997.36
2017-10-27T07:46:18.079Z,997.4
2017-10-27T07:47:18.080Z,997.46
2017-10-27T07:48:18.073Z,997.42
2017-10-27T07:49:18.070Z,997.49
2017-10-27T07:50:18.072Z,997.53
2017-10-27T07:51:18.067Z,997.57
2017-10-27T07:52:18.063Z,997.56
2017-10-27T07:53:18.066Z,997.52
2017-10-27T07:54:18.064Z,997.59
2017-10-27T07:55:18.065Z,997.61
2017-10-27T07:56:18.058Z,997.66
2017-10-27T07:57:18.050Z,997.71
2017-10-27T07:58:18.046Z,997.75
2017-10-27T07:59:18.043Z,997.78
2017-10-27T08:00:18.041Z,997.8
2017-10-27T08:01:18.040Z,997.82
2017-10-27T08:02:18.036Z,997.82
2017-10-27T08:03:18.032Z,997.77
2017-10-27T08:04:18.029Z,997.82
2017-10-27T08:05:18.027Z,997.86
2017-10-27T08:06:18.024Z,997.88
2017-10-27T08:07:18.021Z,997.95
2017-10-27T08:08:18.023Z,997.94
2017-10-27T08:09:18.018Z,997.99
2017-10-27T08:10:18.014Z,998
2017-10-27T08:11:18.066Z,997.99
2017-10-27T08:12:18.006Z,998.05
2017-10-27T08:13:18.004Z,998.07
2017-10-27T08:14:18.001Z,998.1
2017-10-27T08:15:18.091Z,998.09
2017-10-27T08:16:18.000Z,998.13
2017-10-27T08:17:17.993Z,998.16
2017-10-27T08:18:17.986Z,998.2
2017-10-27T08:19:17.989Z,998.25
2017-10-27T08:20:17.983Z,998.25
2017-10-27T08:21:17.978Z,998.28
2017-10-27T08:22:17.977Z,998.36
2017-10-27T08:23:17.978Z,998.28
2017-10-27T08:24:17.975Z,998.28
2017-10-27T08:25:17.967Z,998.25
2017-10-27T08:26:17.965Z,998.3
2017-10-27T08:27:17.963Z,998.32
2017-10-27T08:28:17.958Z,998.24
2017-10-27T08:29:17.960Z,998.29
2017-10-27T08:30:17.954Z,998.27
2017-10-27T08:31:17.952Z,998.29
2017-10-27T08:32:17.948Z,998.27
2017-10-27T08:33:17.952Z,998.34
2017-10-27T08:34:17.941Z,998.36
2017-10-27T08:35:19.199Z,998.42
2017-10-27T08:36:17.936Z,998.45
2017-10-27T08:37:17.935Z,998.44
2017-10-27T08:38:17.935Z,998.52
2017-10-27T08:39:17.929Z,998.45
2017-10-27T08:40:17.925Z,998.48
2017-10-27T08:41:17.928Z,998.51
2017-10-27T08:42:17.926Z,998.55
2017-10-27T08:43:17.917Z,998.55
2017-10-27T08:44:17.915Z,998.58
2017-10-27T08:45:17.914Z,998.57
2017-10-27T08:46:17.923Z,998.58
2017-10-27T08:47:17.916Z,998.59
2017-10-27T08:48:17.913Z,998.58
2017-10-27T08:49:17.926Z,998.57
2017-10-27T08:50:17.898Z,998.63
2017-10-27T08:51:17.900Z,998.69
2017-10-27T08:52:17.896Z,998.71
2017-10-27T08:53:17.892Z,998.73
2017-10-27T08:54:17.889Z,998.73
2017-10-27T08:55:17.934Z,998.78
2017-10-27T08:56:17.888Z,998.76
2017-10-27T08:57:17.881Z,998.77
2017-10-27T08:58:17.882Z,998.81
2017-10-27T08:59:17.911Z,998.8
2017-10-27T09:00:17.875Z,998.82
2017-10-27T09:01:17.872Z,998.87
2017-10-27T09:02:17.870Z,998.91
2017-10-27T09:03:17.869Z,998.9
2017-10-27T09:04:17.867Z,998.99
2017-10-27T09:05:18.532Z,998.99
2017-10-27T09:06:17.864Z,999.01
2017-10-27T09:07:17.864Z,999.03
2017-10-27T09:08:17.867Z,999.03
2017-10-27T09:09:17.871Z,999.08
2017-10-27T09:10:17.873Z,999.12
2017-10-27T09:11:17.867Z,999.16
2017-10-27T09:12:17.848Z,999.17
2017-10-27T09:13:17.847Z,999.16
2017-10-27T09:14:17.844Z,999.15
2017-10-27T09:15:17.842Z,999.15
2017-10-27T09:16:17.840Z,999.12
2017-10-27T09:17:17.842Z,999.14
2017-10-27T09:18:17.838Z,999.15
2017-10-27T09:19:17.834Z,999.16
2017-10-27T09:20:17.833Z,999.18
2017-10-27T09:21:17.831Z,999.11
2017-10-27T09:22:17.827Z,999.18
2017-10-27T09:23:17.840Z,999.2
2017-10-27T09:24:17.825Z,999.21
2017-10-27T09:25:17.822Z,999.23
2017-10-27T09:26:17.821Z,999.15
2017-10-27T09:27:17.818Z,999.09
2017-10-27T09:28:17.816Z,999.08
2017-10-27T09:29:17.817Z,999.14
2017-10-27T09:30:17.813Z,999.17
2017-10-27T09:31:17.813Z,999.15
2017-10-27T09:32:17.810Z,999.24
2017-10-27T09:33:17.807Z,999.21
2017-10-27T09:34:17.804Z,999.18
2017-10-27T09:35:17.808Z,999.19
2017-10-27T09:36:18.256Z,999.19
2017-10-27T09:37:17.801Z,999.18
2017-10-27T09:38:17.805Z,999.16
2017-10-27T09:39:17.796Z,999.18
2017-10-27T09:40:17.798Z,999.24
2017-10-27T09:41:17.795Z,999.27
2017-10-27T09:42:17.797Z,999.24
2017-10-27T09:43:17.790Z,999.27
2017-10-27T09:44:17.789Z,999.32
2017-10-27T09:45:17.787Z,999.39
2017-10-27T09:46:17.786Z,999.37
2017-10-27T09:47:17.786Z,999.34
2017-10-27T09:48:18.216Z,999.43
2017-10-27T09:49:17.783Z,999.35
2017-10-27T09:50:17.957Z,999.41
2017-10-27T09:51:17.782Z,999.48
2017-10-27T09:52:17.780Z,999.51
2017-10-27T09:53:17.778Z,999.54
2017-10-27T09:54:17.779Z,999.55
2017-10-27T09:55:17.774Z,999.57
2017-10-27T09:56:18.120Z,999.56
2017-10-27T09:57:17.852Z,999.66
2017-10-27T09:58:17.774Z,999.68
2017-10-27T09:59:17.772Z,999.66
2017-10-27T10:00:17.769Z,999.67
2017-10-27T10:01:17.769Z,999.71
2017-10-27T10:02:17.767Z,999.78
2017-10-27T10:03:17.767Z,999.82
2017-10-27T10:04:17.766Z,999.77
2017-10-27T10:05:17.766Z,999.69
2017-10-27T10:06:19.668Z,999.68
2017-10-27T10:07:17.764Z,999.66
2017-10-27T10:08:17.761Z,999.76
2017-10-27T10:09:17.764Z,999.65
2017-10-27T10:10:17.764Z,999.62
2017-10-27T10:11:17.770Z,999.61
2017-10-27T10:12:17.761Z,999.68
2017-10-27T10:13:17.759Z,999.69
2017-10-27T10:14:17.762Z,999.79
2017-10-27T10:15:17.758Z,999.78
2017-10-27T10:16:17.757Z,999.89
2017-10-27T10:17:17.757Z,999.94
2017-10-27T10:18:17.756Z,999.9
2017-10-27T10:19:17.755Z,999.94
2017-10-27T10:20:17.756Z,999.95
2017-10-27T10:21:17.758Z,1000.01
2017-10-27T10:22:17.754Z,1000
2017-10-27T10:23:17.751Z,1000.07
2017-10-27T10:24:17.752Z,1000.07
2017-10-27T10:25:17.750Z,1000.1
2017-10-27T10:26:17.750Z,1000.16
2017-10-27T10:27:17.750Z,1000.09
2017-10-27T10:28:17.750Z,1000.07
2017-10-27T10:29:17.755Z,1000.15
2017-10-27T10:30:17.748Z,1000.1
2017-10-27T10:31:17.750Z,1000.06
2017-10-27T10:32:17.748Z,1000.02
2017-10-27T10:33:17.746Z,1000.05
2017-10-27T10:34:17.748Z,1000.09
2017-10-27T10:35:17.755Z,1000.03
2017-10-27T10:36:17.746Z,1000.11
2017-10-27T10:37:17.754Z,1000.13
2017-10-27T10:38:17.746Z,1000.16
2017-10-27T10:39:17.747Z,1000.16
2017-10-27T10:40:17.745Z,1000.18
2017-10-27T10:41:17.745Z,1000.14
2017-10-27T10:42:17.756Z,1000.17
2017-10-27T10:43:17.752Z,1000.03
2017-10-27T10:44:17.743Z,1000.21
2017-10-27T10:45:17.742Z,1000.21
2017-10-27T10:46:17.744Z,1000.24
2017-10-27T10:47:17.741Z,1000.22
2017-10-27T10:48:17.740Z,1000.24
2017-10-27T10:49:17.741Z,1000.16
2017-10-27T10:50:17.744Z,1000.25
2017-10-27T10:51:17.739Z,1000.19
2017-10-27T10:52:17.738Z,1000.19
2017-10-27T10:53:17.738Z,1000.18
2017-10-27T10:54:17.741Z,1000.15
2017-10-27T10:55:17.737Z,1000.2
2017-10-27T10:56:17.736Z,1000.18
2017-10-27T10:57:17.735Z,1000.12
2017-10-27T10:58:17.734Z,1000.09
2017-10-27T10:59:17.733Z,1000.13
2017-10-27T11:00:17.734Z,1000.1
2017-10-27T11:01:17.734Z,1000.18
2017-10-27T11:02:17.732Z,1000.13
2017-10-27T11:03:17.731Z,1000.18
2017-10-27T11:04:17.730Z,1000.18
2017-10-27T11:05:17.730Z,1000.24
2017-10-27T11:06:17.729Z,1000.24
2017-10-27T11:07:17.729Z,1000.16
2017-10-27T11:08:17.731Z,1000.21
2017-10-27T11:09:17.725Z,1000.31
2017-10-27T11:10:17.726Z,1000.31
2017-10-27T11:11:17.725Z,1000.34
2017-10-27T11:12:17.723Z,1000.27
2017-10-27T11:13:17.722Z,1000.26
2017-10-27T11:14:17.723Z,1000.23
2017-10-27T11:15:17.724Z,1000.29
2017-10-27T11:16:17.721Z,1000.23
2017-10-27T11:17:17.719Z,1000.26
2017-10-27T11:18:17.719Z,1000.23
2017-10-27T11:19:17.718Z,1000.17
2017-10-27T11:20:17.715Z,1000.22
2017-10-27T11:21:17.721Z,1000.27
2017-10-27T11:22:17.714Z,1000.28
2017-10-27T11:23:17.714Z,1000.3
2017-10-27T11:24:17.713Z,1000.21
2017-10-27T11:25:17.715Z,1000.3
2017-10-27T11:26:17.711Z,1000.29
2017-10-27T11:27:17.713Z,1000.31
2017-10-27T11:28:17.709Z,1000.27
2017-10-27T11:29:17.709Z,1000.42
2017-10-27T11:30:17.709Z,1000.45
2017-10-27T11:31:17.708Z,1000.49
2017-10-27T11:32:17.707Z,1000.51
2017-10-27T11:33:17.708Z,1000.39
2017-10-27T11:34:17.707Z,1000.41
2017-10-27T11:35:17.707Z,1000.4
2017-10-27T11:36:17.704Z,1000.51
2017-10-27T11:37:17.704Z,1000.46
2017-10-27T11:38:17.706Z,1000.47
2017-10-27T11:39:17.704Z,1000.47
2017-10-27T11:40:18.107Z,1000.43
2017-10-27T11:41:17.703Z,1000.46
2017-10-27T11:42:17.701Z,1000.39
2017-10-27T11:43:17.702Z,1000.42
2017-10-27T11:44:17.702Z,1000.44
2017-10-27T11:45:17.702Z,1000.38
2017-10-27T11:46:17.702Z,1000.42
2017-10-27T11:47:17.702Z,1000.39
2017-10-27T11:48:17.700Z,1000.33
2017-10-27T11:49:17.721Z,1000.28
2017-10-27T11:50:17.704Z,1000.25
2017-10-27T11:51:17.700Z,1000.24
2017-10-27T11:52:20.426Z,1000.22
2017-10-27T11:53:17.701Z,1000.14
2017-10-27T11:54:17.704Z,1000.11
2017-10-27T11:55:17.705Z,1000.05
2017-10-27T11:56:17.701Z,1000.01
2017-10-27T11:57:17.723Z,1000.03
2017-10-27T11:58:17.701Z,1000.08
2017-10-27T11:59:17.702Z,1000.11
2017-10-27T12:00:17.702Z,1000.09
2017-10-27T12:01:17.698Z,1000.15
2017-10-27T12:02:17.703Z,1000.23
2017-10-27T12:03:17.700Z,1000.19
2017-10-27T12:04:17.697Z,1000.23
2017-10-27T12:05:17.697Z,1000.24
2017-10-27T12:06:17.714Z,1000.25
2017-10-27T12:07:17.696Z,1000.33
2017-10-27T12:08:17.700Z,1000.39
2017-10-27T12:09:17.700Z,1000.39
2017-10-27T12:10:17.694Z,1000.47
2017-10-27T12:11:17.696Z,1000.47
2017-10-27T12:12:17.693Z,1000.46
2017-10-27T12:13:17.728Z,1000.42
2017-10-27T12:14:17.710Z,1000.43
2017-10-27T12:15:17.691Z,1000.51
2017-10-27T12:16:17.700Z,1000.52
2017-10-27T12:17:17.745Z,1000.39
2017-10-27T12:18:17.706Z,1000.45
2017-10-27T12:19:17.720Z,1000.43
2017-10-27T12:20:17.731Z,1000.38
2017-10-27T12:21:17.689Z,1000.33
2017-10-27T12:22:17.687Z,1000.31
2017-10-27T12:23:17.688Z,1000.28
2017-10-27T12:24:17.693Z,1000.32
2017-10-27T12:25:17.689Z,1000.24
2017-10-27T12:26:17.692Z,1000.26
2017-10-27T12:27:17.687Z,1000.24